Time;durP1;ratioP1;P1;durP2;ratioP2;P2;SDS_P1;SDS_P2;PMS_P1;PMS_P2;Temp;Humidity;BMP_temperature;BMP_pressure;BME280_temperature;BME280_humidity;BME280_pressure;Samples;Min_cycle;Max_cycle;Signal;HPM_P1;HPM_P2
2021/06/14 05:32:04;;;;;;;5.30;1.70;;;;;;;14.37;73.39;100817.95;1624595;85;26722;-68
2021/06/14 05:34:31;;;;;;;9.73;3.00;;;;;;;14.54;73.23;100818.50;1646175;85;27970;-68
2021/06/14 05:36:58;;;;;;;5.28;1.82;;;;;;;14.68;72.84;100819.70;1621864;86;25887;-68
2021/06/14 05:39:24;;;;;;;4.10;1.32;;;;;;;14.83;72.26;100834.73;1606301;87;25854;-64
2021/06/14 05:41:51;;;;;;;4.87;1.82;;;;;;;15.01;72.03;100834.67;1624052;85;28127;-63
2021/06/14 05:44:18;;;;;;;7.40;1.72;;;;;;;15.19;71.51;100823.95;1647445;85;25982;-63
2021/06/14 05:46:44;;;;;;;5.28;1.72;;;;;;;15.36;70.69;100815.44;1638558;85;27384;-64
2021/06/14 05:49:11;;;;;;;3.40;1.22;;;;;;;15.54;69.70;100816.95;1611210;87;26164;-64
2021/06/14 05:51:38;;;;;;;4.25;1.67;;;;;;;15.71;68.93;100816.62;1616482;87;26607;-63
2021/06/14 05:54:06;;;;;;;3.12;1.40;;;;;;;15.87;68.32;100828.01;1621682;87;26998;-64
2021/06/14 05:56:33;;;;;;;20.72;14.30;;;;;;;16.06;68.07;100824.03;1593361;88;25914;-64
2021/06/14 05:59:00;;;;;;;4.25;2.17;;;;;;;16.23;67.71;100827.97;1632925;86;28677;-65
2021/06/14 06:01:31;;;;;;;5.28;1.55;;;;;;;16.42;66.97;100827.48;1614994;86;25908;-64
2021/06/14 06:03:58;;;;;;;3.37;1.30;;;;;;;16.63;66.27;100828.00;1626403;86;25897;-64
2021/06/14 06:06:25;;;;;;;6.15;1.50;;;;;;;16.81;66.03;100826.69;1628116;85;26622;-62
2021/06/14 06:08:52;;;;;;;3.95;1.42;;;;;;;17.02;65.69;100834.04;1601612;87;26298;-63
2021/06/14 06:11:18;;;;;;;2.02;1.50;;;;;;;17.22;65.11;100833.73;1599740;87;28068;-63
2021/06/14 06:13:45;;;;;;;2.15;1.30;;;;;;;17.42;64.41;100832.03;1604519;87;25802;-62
2021/06/14 06:16:11;;;;;;;3.87;1.50;;;;;;;17.66;64.07;100834.52;1608861;87;26032;-63
2021/06/14 06:18:37;;;;;;;3.02;1.55;;;;;;;17.88;63.83;100838.16;1605792;87;26646;-62
2021/06/14 06:21:04;;;;;;;4.70;2.20;;;;;;;18.11;62.57;100835.69;1606954;85;27478;-63
2021/06/14 06:23:31;;;;;;;1.85;1.12;;;;;;;18.33;61.97;100829.47;1649601;85;27374;-63
2021/06/14 06:25:57;;;;;;;3.22;1.10;;;;;;;18.55;61.25;100831.44;1622077;85;27188;-63
2021/06/14 06:28:23;;;;;;;3.58;1.10;;;;;;;18.73;60.67;100838.19;1650788;85;25861;-63
2021/06/14 06:30:50;;;;;;;2.50;0.90;;;;;;;18.91;59.61;100837.30;1618727;86;25988;-63
2021/06/14 06:33:17;;;;;;;4.45;1.30;;;;;;;19.07;58.76;100843.36;1622755;85;25977;-62
2021/06/14 06:35:44;;;;;;;2.20;1.02;;;;;;;19.20;58.36;100841.55;1629935;85;27379;-65
2021/06/14 06:38:11;;;;;;;2.52;1.15;;;;;;;19.34;57.82;100838.38;1632968;85;25934;-64
2021/06/14 06:40:38;;;;;;;3.95;1.15;;;;;;;19.46;57.10;100839.41;1635193;85;25950;-68
2021/06/14 06:43:04;;;;;;;2.67;1.12;;;;;;;19.58;56.56;100840.67;1626895;85;26092;-77
2021/06/14 06:45:30;;;;;;;3.72;1.15;;;;;;;19.73;56.28;100834.94;1649075;85;25892;-76
2021/06/14 06:47:57;;;;;;;2.70;1.70;;;;;;;19.83;55.31;100826.17;1650484;85;27289;-76
2021/06/14 06:50:23;;;;;;;3.20;1.20;;;;;;;19.96;54.92;100828.22;1602973;88;25853;-75
2021/06/14 06:52:50;;;;;;;2.20;1.37;;;;;;;20.13;54.79;100834.66;1650443;85;25983;-74
2021/06/14 06:55:17;;;;;;;2.58;1.30;;;;;;;20.33;54.56;100836.05;1613775;85;26994;-75
2021/06/14 06:57:44;;;;;;;4.08;1.00;;;;;;;20.50;53.63;100834.22;1644118;85;25916;-75
2021/06/14 07:00:15;;;;;;;1.87;1.05;;;;;;;20.63;53.03;100831.33;1646120;85;28258;-74
2021/06/14 07:02:42;;;;;;;3.70;0.95;;;;;;;20.70;52.47;100835.58;1646965;85;26529;-76
2021/06/14 07:05:11;;;;;;;2.52;1.40;;;;;;;20.82;52.11;100823.06;1651896;85;25700;-78
2021/06/14 07:07:37;;;;;;;1.65;1.12;;;;;;;21.00;51.73;100822.56;1649784;85;25998;-75
2021/06/14 07:10:07;;;;;;;2.58;1.15;;;;;;;21.16;51.09;100830.08;1650460;85;26100;-76
2021/06/14 07:12:35;;;;;;;1.98;1.10;;;;;;;21.33;50.56;100821.11;1662023;85;27364;-75
2021/06/14 07:15:02;;;;;;;1.87;1.15;;;;;;;21.49;50.07;100827.86;1660743;85;26034;-77
2021/06/14 07:17:29;;;;;;;3.90;1.05;;;;;;;21.69;49.80;100827.98;1655248;85;25797;-75
2021/06/14 07:19:56;;;;;;;3.62;1.20;;;;;;;21.86;49.17;100831.34;1619900;85;26700;-75
2021/06/14 07:22:23;;;;;;;2.35;0.93;;;;;;;22.05;48.66;100833.16;1648742;85;25753;-74
2021/06/14 07:24:49;;;;;;;1.00;0.88;;;;;;;22.24;48.33;100833.61;1658857;85;27324;-73
2021/06/14 07:27:16;;;;;;;1.87;1.20;;;;;;;22.46;47.64;100833.27;1651797;85;26556;-76
2021/06/14 07:29:43;;;;;;;7.53;1.40;;;;;;;22.68;46.92;100832.34;1651417;85;25954;-76
2021/06/14 07:32:09;;;;;;;2.75;1.05;;;;;;;22.87;46.18;100827.80;1645954;85;25949;-76
2021/06/14 07:34:36;;;;;;;3.87;1.25;;;;;;;23.00;44.96;100828.28;1650070;85;25736;-77
2021/06/14 07:37:02;;;;;;;4.40;0.98;;;;;;;23.18;44.16;100838.13;1656332;85;27343;-77
2021/06/14 07:39:29;;;;;;;1.67;1.00;;;;;;;23.32;43.76;100836.84;1611995;86;27195;-77
2021/06/14 07:41:55;;;;;;;2.85;0.70;;;;;;;23.45;43.20;100835.97;1648826;85;25731;-78
2021/06/14 07:44:21;;;;;;;2.92;1.12;;;;;;;23.64;42.88;100833.52;1657034;85;25901;-78
2021/06/14 07:46:48;;;;;;;2.05;0.90;;;;;;;23.83;42.36;100835.23;1658348;84;25811;-77
2021/06/14 07:49:14;;;;;;;2.77;1.00;;;;;;;23.97;41.80;100837.27;1649943;85;27432;-77
2021/06/14 07:51:41;;;;;;;2.20;0.98;;;;;;;24.11;41.30;100844.82;1654068;85;25761;-76
2021/06/14 07:54:07;;;;;;;5.72;1.10;;;;;;;24.23;40.98;100845.88;1615985;85;25678;-65
2021/06/14 07:56:37;;;;;;;0.93;0.88;;;;;;;24.34;40.81;100838.39;1659529;85;25889;-74
2021/06/14 07:59:02;;;;;;;1.80;1.00;;;;;;;24.46;40.51;100840.02;1635019;85;25771;-73
2021/06/14 08:01:29;;;;;;;1.02;0.72;;;;;;;24.59;40.51;100836.33;1637942;85;27725;-74
2021/06/14 08:03:55;;;;;;;2.33;1.20;;;;;;;24.71;40.58;100837.34;1639924;85;27199;-72
2021/06/14 08:06:21;;;;;;;3.45;1.37;;;;;;;24.85;40.00;100833.02;1616578;86;26218;-75
2021/06/14 08:08:48;;;;;;;1.85;1.05;;;;;;;24.95;38.94;100835.77;1614546;87;28134;-74
2021/06/14 08:11:18;;;;;;;2.47;1.22;;;;;;;25.05;38.50;100830.05;1653767;85;25828;-74
2021/06/14 08:13:46;;;;;;;2.45;1.15;;;;;;;25.14;38.59;100824.12;1651116;85;27362;-76
2021/06/14 08:16:13;;;;;;;2.52;2.15;;;;;;;25.30;38.76;100828.70;1658640;85;27235;-76
2021/06/14 08:18:48;;;;;;;3.25;1.10;;;;;;;25.52;38.29;100824.48;1655198;85;25888;-74
2021/06/14 08:26:31;;;;;;;3.62;1.00;;;;;;;26.01;37.36;100810.92;1517641;93;27359;-77
2021/06/14 08:29:00;;;;;;;2.75;1.00;;;;;;;26.21;37.11;100820.33;1524501;92;25827;-77
2021/06/14 08:31:30;;;;;;;1.52;0.80;;;;;;;26.42;36.13;100815.25;1521782;92;25866;-76
2021/06/14 08:33:56;;;;;;;1.82;0.90;;;;;;;26.55;36.02;100825.89;1530266;92;25899;-74
2021/06/14 08:36:23;;;;;;;4.60;1.30;;;;;;;26.70;35.75;100820.47;1516248;92;25953;-74
2021/06/14 08:38:50;;;;;;;5.35;1.00;;;;;;;26.87;35.72;100831.83;1508821;92;27428;-76
2021/06/14 08:41:18;;;;;;;3.17;1.00;;;;;;;27.01;35.40;100828.95;1498812;92;25909;-75
2021/06/14 08:43:51;;;;;;;1.47;1.12;;;;;;;27.16;34.64;100818.52;1504940;92;26266;-76
2021/06/14 08:46:18;;;;;;;2.35;1.07;;;;;;;27.20;34.19;100825.59;1508208;92;25964;-75
2021/06/14 08:48:45;;;;;;;1.92;0.93;;;;;;;27.28;34.05;100824.17;1517204;92;25997;-74
2021/06/14 08:51:13;;;;;;;1.75;1.00;;;;;;;27.36;34.11;100825.68;1509559;92;28496;-75
2021/06/14 08:53:40;;;;;;;2.35;1.07;;;;;;;27.46;33.63;100824.00;1511268;92;25936;-72
2021/06/14 08:56:08;;;;;;;2.12;1.00;;;;;;;27.61;33.45;100830.20;1490307;94;25907;-73
2021/06/14 08:58:34;;;;;;;1.77;0.88;;;;;;;27.73;33.21;100836.61;1506472;94;26094;-73
2021/06/14 09:01:01;;;;;;;2.30;1.02;;;;;;;27.80;33.04;100832.97;1504250;94;25866;-73
2021/06/14 09:03:29;;;;;;;1.82;0.98;;;;;;;27.93;33.00;100831.26;1601456;88;27345;-74
2021/06/14 09:05:56;;;;;;;1.47;1.20;;;;;;;28.10;32.52;100828.84;1608782;87;25934;-75
2021/06/14 09:08:24;;;;;;;2.22;1.85;;;;;;;28.22;32.53;100828.89;1626138;87;26170;-74
2021/06/14 09:10:55;;;;;;;2.92;1.10;;;;;;;28.44;32.43;100823.05;1629747;86;32745;-74
2021/06/14 09:13:35;;;;;;;1.10;0.90;;;;;;;28.58;31.67;100820.07;1627768;87;26576;-74
2021/06/14 09:16:13;;;;;;;1.42;0.93;;;;;;;28.70;31.67;100814.52;1629803;86;28270;-75
2021/06/14 09:18:42;;;;;;;3.75;1.55;;;;;;;28.84;31.58;100827.42;1657028;84;33213;-73
2021/06/14 09:21:15;;;;;;;3.33;0.90;;;;;;;28.90;31.17;100820.18;1642364;85;25916;-69
2021/06/14 09:23:52;;;;;;;1.25;1.00;;;;;;;29.00;31.25;100817.82;1652252;85;26616;-74
2021/06/14 09:26:33;;;;;;;5.85;1.10;;;;;;;28.93;31.19;100822.12;1666624;85;25764;-69
2021/06/14 09:29:09;;;;;;;1.95;1.00;;;;;;;28.90;31.23;100822.19;1633667;85;28061;-67
2021/06/14 09:31:47;;;;;;;1.15;0.98;;;;;;;28.90;31.53;100814.61;1591540;88;25790;-68
2021/06/14 09:34:16;;;;;;;4.53;2.08;;;;;;;28.83;30.83;100816.13;1605156;86;25771;-67
2021/06/14 09:36:56;;;;;;;2.77;1.52;;;;;;;28.74;31.47;100808.90;1650488;85;25927;-69
2021/06/14 09:39:23;;;;;;;3.67;2.90;;;;;;;28.57;30.83;100803.80;1618501;86;26541;-69
2021/06/14 09:41:52;;;;;;;3.47;2.35;;;;;;;28.44;31.50;100797.40;1633670;86;27334;-70
2021/06/14 09:44:32;;;;;;;;;;;;;;;28.34;31.67;100807.30;1619078;86;25855;-71
2021/06/14 09:47:07;;;;;;;5.40;2.90;;;;;;;28.43;31.73;100806.16;1651938;85;25801;-68
2021/06/14 09:49:34;;;;;;;3.30;2.10;;;;;;;28.51;31.79;100811.80;1620852;86;26446;-69
2021/06/14 09:52:02;;;;;;;2.17;1.45;;;;;;;28.50;31.71;100807.44;1628102;85;25884;-67
2021/06/14 09:54:31;;;;;;;2.95;1.30;;;;;;;28.64;31.25;100807.27;1637415;85;27264;-62
2021/06/14 09:57:00;;;;;;;5.30;1.60;;;;;;;28.84;31.18;100796.22;1650838;85;26310;-62
2021/06/14 09:59:40;;;;;;;3.10;1.77;;;;;;;28.96;31.26;100807.95;1658075;85;25862;-62
2021/06/14 10:02:17;;;;;;;3.95;1.10;;;;;;;29.00;31.32;100807.30;1647808;85;25909;-62
2021/06/14 10:04:43;;;;;;;4.20;1.10;;;;;;;29.02;30.86;100801.47;1655527;85;25803;-62
2021/06/14 10:07:16;;;;;;;1.85;1.02;;;;;;;29.10;30.59;100795.77;1653788;84;29580;-62
2021/06/14 10:09:49;;;;;;;1.50;1.40;;;;;;;29.10;30.12;100799.95;1645911;85;25948;-62
2021/06/14 10:12:21;;;;;;;2.70;1.60;;;;;;;29.11;30.45;100798.75;1652823;85;25731;-62
2021/06/14 10:15:03;;;;;;;3.52;1.30;;;;;;;29.14;30.58;100797.29;1636991;86;25946;-62
2021/06/14 10:17:34;;;;;;;3.95;2.55;;;;;;;29.21;30.42;100793.63;1657948;85;26285;-62
2021/06/14 10:20:24;;;;;;;2.40;1.10;;;;;;;29.31;30.31;100784.28;1654652;85;27384;-62
2021/06/14 10:22:55;;;;;;;1.95;1.15;;;;;;;29.45;30.85;100788.79;1660702;85;26032;-63
2021/06/14 10:25:23;;;;;;;2.92;1.20;;;;;;;29.53;30.36;100782.48;1626236;85;25889;-62
2021/06/14 10:27:51;;;;;;;1.75;1.37;;;;;;;29.73;30.46;100786.06;1608801;87;26795;-62
2021/06/14 10:30:20;;;;;;;1.10;1.00;;;;;;;29.92;30.25;100791.47;1607097;87;25913;-62
2021/06/14 10:32:48;;;;;;;2.17;1.30;;;;;;;29.92;29.57;100778.92;1619160;87;27380;-62
2021/06/14 10:35:17;;;;;;;1.30;1.20;;;;;;;30.00;29.66;100789.30;1612441;87;25932;-62
2021/06/14 10:37:48;;;;;;;2.25;1.30;;;;;;;30.15;29.67;100786.39;1621682;85;25918;-62
2021/06/14 10:40:20;;;;;;;2.20;1.90;;;;;;;30.12;29.06;100790.05;1617623;85;26789;-64
2021/06/14 10:42:47;;;;;;;2.05;1.40;;;;;;;30.12;28.98;100785.86;1632137;85;26010;-65
2021/06/14 10:45:19;;;;;;;4.30;1.50;;;;;;;30.02;28.71;100786.08;1596768;87;27972;-65
2021/06/14 10:47:48;;;;;;;1.98;1.30;;;;;;;29.82;28.56;100770.79;1594579;86;25918;-65
2021/06/14 10:50:25;;;;;;;3.62;1.50;;;;;;;29.79;29.01;100781.56;1603841;87;25522;-65
2021/06/14 10:52:55;;;;;;;2.65;1.15;;;;;;;30.01;29.22;100782.51;1569495;88;26114;-66
2021/06/14 10:55:32;;;;;;;3.15;1.60;;;;;;;30.08;28.81;100779.56;1599348;87;25909;-65
2021/06/14 10:58:00;;;;;;;2.25;1.07;;;;;;;30.28;28.99;100776.73;1652512;85;27348;-66
2021/06/14 11:00:31;;;;;;;1.90;1.20;;;;;;;30.17;28.73;100767.80;1658174;85;26042;-65
2021/06/14 11:03:12;;;;;;;3.33;1.60;;;;;;;30.17;28.42;100771.41;1656131;85;26308;-79
2021/06/14 11:05:46;;;;;;;9.50;4.72;;;;;;;30.29;28.62;100769.94;1653174;85;26633;-83
2021/06/14 11:08:16;;;;;;;2.10;1.65;;;;;;;30.48;28.20;100767.55;1639077;85;26078;-79
2021/06/14 11:10:47;;;;;;;1.62;1.52;;;;;;;30.59;28.41;100767.28;1635534;85;27328;-85
2021/06/14 11:13:16;;;;;;;3.20;0.90;;;;;;;30.88;28.31;100770.91;1625123;85;25949;-84
2021/06/14 11:15:48;;;;;;;1.77;1.10;;;;;;;31.08;27.90;100756.09;1626090;85;25882;-83
2021/06/14 11:18:25;;;;;;;1.35;1.10;;;;;;;31.22;27.73;100751.50;1633492;86;26617;-78
2021/06/14 11:20:56;;;;;;;1.77;1.05;;;;;;;31.38;27.09;100755.47;1647554;85;26573;-80
2021/06/14 11:23:27;;;;;;;2.05;1.20;;;;;;;31.42;26.77;100751.35;1624974;87;27558;-79
2021/06/14 11:25:54;;;;;;;2.25;1.10;;;;;;;31.44;26.77;100750.29;1624922;86;25886;-75
2021/06/14 11:28:38;;;;;;;2.00;1.10;;;;;;;31.62;26.72;100746.25;1608661;87;26805;-80
2021/06/14 11:31:28;;;;;;;3.60;1.27;;;;;;;31.71;26.30;100742.80;1641363;86;28132;-80
2021/06/14 11:34:01;;;;;;;1.62;1.10;;;;;;;31.81;26.36;100734.70;1652374;85;25911;-80
2021/06/14 11:36:31;;;;;;;2.12;1.30;;;;;;;31.89;26.30;100732.45;1632239;87;27939;-79
2021/06/14 11:39:01;;;;;;;3.87;1.00;;;;;;;31.94;26.29;100732.70;1602789;88;26086;-84
2021/06/14 11:41:34;;;;;;;2.05;1.00;;;;;;;32.10;25.95;100733.86;1617790;87;26278;-77
2021/06/14 11:44:24;;;;;;;2.25;1.20;;;;;;;32.33;25.86;100734.11;1652897;85;26450;-83
2021/06/14 11:47:14;;;;;;;5.05;4.47;;;;;;;32.41;25.84;100729.08;1646157;85;26059;-75
2021/06/14 11:49:43;;;;;;;4.33;1.30;;;;;;;32.50;25.66;100727.76;1638108;85;27381;-76
2021/06/14 11:52:35;;;;;;;1.52;1.00;;;;;;;32.61;25.70;100726.82;1654430;85;25903;-76
2021/06/14 11:55:11;;;;;;;1.62;1.10;;;;;;;32.58;25.04;100717.89;1656002;85;26605;-73
2021/06/14 11:57:43;;;;;;;2.05;1.25;;;;;;;32.66;25.19;100714.25;1632528;86;26566;-74
2021/06/14 12:00:27;;;;;;;4.65;1.60;;;;;;;32.69;24.68;100713.34;1625095;86;25848;-73
2021/06/14 12:02:54;;;;;;;2.00;1.35;;;;;;;32.74;25.04;100714.17;1611372;86;29601;-72
2021/06/14 12:05:33;;;;;;;1.40;1.02;;;;;;;32.80;24.65;100715.80;1645008;85;25792;-73
2021/06/14 12:08:02;;;;;;;2.45;1.05;;;;;;;32.85;24.57;100710.39;1651857;85;25878;-73
2021/06/14 12:10:28;;;;;;;0.90;0.75;;;;;;;32.91;24.24;100701.59;1647124;85;26494;-73
2021/06/14 12:13:05;;;;;;;2.50;0.85;;;;;;;33.00;24.27;100704.27;1641115;85;25483;-73
2021/06/14 12:15:33;;;;;;;3.25;1.32;;;;;;;33.09;23.86;100702.33;1651184;85;27317;-73
2021/06/14 12:18:00;;;;;;;2.80;1.30;;;;;;;33.11;23.78;100701.25;1596445;87;29947;-66
2021/06/14 12:20:34;;;;;;;2.72;1.00;;;;;;;33.11;23.70;100702.66;1636179;86;26605;-66
2021/06/14 12:23:12;;;;;;;2.50;1.22;;;;;;;33.04;23.42;100698.72;1620685;86;26170;-66
2021/06/14 12:25:41;;;;;;;2.42;1.10;;;;;;;32.86;23.75;100711.17;1626718;87;25758;-65
2021/06/14 12:28:13;;;;;;;2.15;1.25;;;;;;;32.85;23.90;100704.79;1646900;85;27332;-66
2021/06/14 12:30:43;;;;;;;1.47;1.00;;;;;;;32.81;23.79;100709.75;1644518;85;25883;-66
2021/06/14 12:33:10;;;;;;;2.15;1.15;;;;;;;32.54;23.53;100711.02;1656457;84;25894;-65
2021/06/14 12:35:42;;;;;;;0.85;0.85;;;;;;;32.33;23.84;100709.69;1657481;85;26649;-65
2021/06/14 12:38:11;;;;;;;2.47;1.02;;;;;;;32.30;23.78;100702.81;1656102;85;25891;-66
2021/06/14 12:40:40;;;;;;;5.37;2.95;;;;;;;32.36;24.24;100701.03;1650914;86;27367;-66
2021/06/14 12:43:11;;;;;;;2.60;2.00;;;;;;;32.43;24.08;100691.61;1598311;86;25802;-67
2021/06/14 12:45:40;;;;;;;1.55;1.07;;;;;;;32.54;24.31;100693.45;1589840;88;26585;-66
2021/06/14 12:48:12;;;;;;;3.37;1.47;;;;;;;32.60;24.17;100704.22;1598925;88;25968;-66
2021/06/14 12:50:43;;;;;;;1.98;1.22;;;;;;;32.68;24.08;100694.37;1576776;89;25898;-66
2021/06/14 12:53:11;;;;;;;3.15;1.50;;;;;;;32.65;23.46;100698.08;1600163;89;27936;-66
2021/06/14 12:55:41;;;;;;;5.58;3.02;;;;;;;32.51;23.50;100701.34;1565686;88;26107;-66
2021/06/14 13:01:06;;;;;;;5.87;4.95;;;;;;;32.15;23.94;100693.50;1604299;86;26324;-65
2021/06/14 13:03:37;;;;;;;3.02;1.30;;;;;;;32.13;24.28;100699.36;1634148;85;26555;-65
2021/06/14 13:06:05;;;;;;;2.20;1.40;;;;;;;32.12;24.27;100689.42;1642370;85;27310;-66
2021/06/14 13:08:41;;;;;;;4.10;1.60;;;;;;;32.23;24.12;100687.05;1641054;85;25738;-65
2021/06/14 13:11:10;;;;;;;2.72;2.08;;;;;;;32.28;24.08;100689.90;1638175;85;25886;-66
2021/06/14 13:13:45;;;;;;;4.05;1.02;;;;;;;32.33;24.20;100684.51;1634672;85;26436;-65
2021/06/14 13:16:19;;;;;;;1.80;1.10;;;;;;;32.29;23.87;100692.25;1615735;85;26520;-65
2021/06/14 13:18:59;;;;;;;3.45;1.10;;;;;;;32.27;23.75;100684.92;1620611;86;27345;-66
2021/06/14 13:21:32;;;;;;;3.00;1.17;;;;;;;32.25;24.04;100681.00;1625711;85;25975;-66
2021/06/14 13:24:09;;;;;;;1.87;1.07;;;;;;;32.34;24.07;100676.91;1658432;84;25915;-66
2021/06/14 13:26:47;;;;;;;3.25;1.80;;;;;;;32.40;24.12;100677.89;1653534;85;26568;-66
2021/06/14 13:29:29;;;;;;;2.55;1.40;;;;;;;32.38;24.12;100680.36;1648665;85;25702;-67
2021/06/14 13:32:06;;;;;;;2.37;1.20;;;;;;;32.30;24.29;100676.23;1652195;85;27264;-66
2021/06/14 13:34:35;;;;;;;1.82;1.22;;;;;;;32.28;24.11;100671.70;1634051;85;25567;-67
2021/06/14 13:37:01;;;;;;;3.25;1.10;;;;;;;32.28;24.30;100673.88;1645213;85;35459;-67
2021/06/14 13:39:38;;;;;;;4.10;1.30;;;;;;;32.28;24.28;100676.68;1618337;86;26120;-67
2021/06/14 13:42:07;;;;;;;4.53;1.20;;;;;;;32.31;23.86;100670.19;1621672;86;25737;-64
2021/06/14 13:44:34;;;;;;;8.13;2.87;;;;;;;32.19;23.82;100666.17;1643176;85;27340;-66
2021/06/14 13:47:02;;;;;;;12.43;8.53;;;;;;;31.96;24.14;100665.91;1639463;85;25857;-66
2021/06/14 13:49:35;;;;;;;2.00;1.37;;;;;;;31.92;24.59;100668.02;1624405;86;25937;-66
2021/06/14 13:52:11;;;;;;;2.75;1.30;;;;;;;31.88;24.00;100672.95;1656216;85;26510;-66
2021/06/14 13:54:40;;;;;;;5.50;1.80;;;;;;;31.73;23.93;100659.25;1661130;85;25781;-66
2021/06/14 13:57:13;;;;;;;2.50;1.00;;;;;;;31.67;24.30;100656.23;1642503;85;29938;-66
2021/06/14 13:59:42;;;;;;;3.15;1.32;;;;;;;31.62;24.12;100646.38;1638720;84;25879;-66
2021/06/14 14:02:25;;;;;;;2.20;1.15;;;;;;;31.60;24.55;100650.25;1622429;86;30017;-66
2021/06/14 14:04:51;;;;;;;3.02;1.10;;;;;;;31.51;24.21;100635.36;1607155;86;26637;-66
2021/06/14 14:07:18;;;;;;;2.45;1.22;;;;;;;31.39;24.68;100640.45;1589697;87;26099;-66
2021/06/14 14:09:44;;;;;;;3.77;1.10;;;;;;;31.42;24.42;100638.79;1630984;85;27430;-68
2021/06/14 14:12:12;;;;;;;1.52;1.10;;;;;;;31.29;24.11;100635.97;1640392;85;26469;-65
2021/06/14 14:14:39;;;;;;;1.45;1.05;;;;;;;31.23;24.44;100632.17;1606703;87;26428;-65
2021/06/14 14:17:05;;;;;;;2.30;1.00;;;;;;;31.20;24.58;100631.03;1626245;85;26068;-64
2021/06/14 14:19:35;;;;;;;3.83;1.17;;;;;;;31.17;24.62;100640.92;1619683;86;26685;-65
2021/06/14 14:22:04;;;;;;;2.42;1.00;;;;;;;31.07;24.76;100633.81;1647042;85;27323;-64
2021/06/14 14:24:31;;;;;;;3.17;2.40;;;;;;;31.04;24.80;100632.48;1617488;87;26315;-64
2021/06/14 14:27:00;;;;;;;3.27;1.87;;;;;;;31.00;24.89;100634.61;1645146;85;25895;-64
2021/06/14 14:29:34;;;;;;;2.02;1.00;;;;;;;30.89;24.61;100629.31;1655809;85;26591;-64
2021/06/14 14:32:04;;;;;;;4.00;1.50;;;;;;;30.51;24.56;100629.32;1646939;85;25895;-64
2021/06/14 14:34:44;;;;;;;2.58;2.25;;;;;;;30.32;25.13;100628.77;1643884;85;27334;-63
2021/06/14 14:37:28;;;;;;;2.58;1.10;;;;;;;30.23;25.44;100630.02;1607276;86;25871;-63
2021/06/14 14:40:09;;;;;;;2.72;1.37;;;;;;;30.15;25.37;100626.02;1609217;86;25750;-64
2021/06/14 14:42:38;;;;;;;5.17;1.45;;;;;;;30.09;25.56;100631.94;1614204;86;26692;-64
2021/06/14 14:45:08;;;;;;;4.05;1.22;;;;;;;30.05;25.72;100622.85;1599674;87;26632;-63
2021/06/14 14:47:35;;;;;;;1.75;1.12;;;;;;;29.95;25.69;100608.56;1610880;86;27886;-73
2021/06/14 14:50:04;;;;;;;3.70;1.07;;;;;;;29.79;25.88;100621.27;1600522;87;26592;-73
2021/06/14 14:52:34;;;;;;;3.27;1.25;;;;;;;29.67;26.07;100619.14;1586243;87;26176;-73
2021/06/14 14:55:36;;;;;;;3.80;1.10;;;;;;;29.46;26.03;100611.25;1566397;89;26618;-72
2021/06/14 14:58:03;;;;;;;2.92;0.98;;;;;;;29.37;26.15;100610.45;1579223;88;26707;-72
2021/06/14 15:00:41;;;;;;;3.83;1.62;;;;;;;29.28;26.34;100613.83;1602161;88;27549;-71
2021/06/14 15:03:09;;;;;;;3.70;1.10;;;;;;;29.21;26.41;100611.97;1575419;88;25876;-70
2021/06/14 15:05:35;;;;;;;1.75;1.15;;;;;;;29.18;26.52;100607.88;1568735;89;25975;-70
2021/06/14 15:08:02;;;;;;;3.92;1.10;;;;;;;29.04;26.45;100611.09;1574420;88;28233;-70
2021/06/14 15:10:28;;;;;;;3.17;1.20;;;;;;;28.90;26.74;100611.39;1576503;89;25951;-72
2021/06/14 15:12:55;;;;;;;2.27;1.40;;;;;;;28.80;26.77;100617.34;1574356;90;27412;-72
2021/06/14 15:15:23;;;;;;;2.17;1.10;;;;;;;28.74;26.87;100609.91;1578220;90;25829;-72
2021/06/14 15:17:53;;;;;;;1.65;0.90;;;;;;;28.65;27.08;100614.03;1553484;90;25963;-72
2021/06/14 15:20:23;;;;;;;3.25;0.90;;;;;;;28.64;27.11;100608.89;1570916;90;26620;-71
2021/06/14 15:22:51;;;;;;;2.98;1.40;;;;;;;28.52;26.54;100607.52;1554811;90;25966;-70
2021/06/14 15:25:21;;;;;;;1.30;1.00;;;;;;;28.37;26.69;100601.41;1580858;88;27342;-68
2021/06/14 15:27:48;;;;;;;2.25;1.12;;;;;;;28.28;27.13;100606.72;1550790;91;26498;-69
2021/06/14 15:30:17;;;;;;;1.87;1.00;;;;;;;28.23;27.37;100603.84;1554465;91;26088;-69
2021/06/14 15:32:50;;;;;;;;;;;;;;;28.14;27.38;100602.19;1529686;91;26617;-68
2021/06/14 15:35:20;;;;;;;3.30;1.40;;;;;;;28.06;27.22;100602.92;1548457;91;26624;-69
2021/06/14 15:37:56;;;;;;;2.27;1.37;;;;;;;27.97;27.68;100605.44;1546381;91;27422;-70
2021/06/14 15:40:24;;;;;;;2.05;1.10;;;;;;;27.90;27.93;100603.52;1549898;91;25924;-69
2021/06/14 15:42:51;;;;;;;2.25;1.00;;;;;;;27.85;27.97;100606.78;1555201;91;25950;-70
2021/06/14 15:45:19;;;;;;;1.80;1.40;;;;;;;27.75;27.68;100607.73;1551808;91;26190;-70
2021/06/14 15:47:46;;;;;;;5.45;1.60;;;;;;;27.68;27.95;100603.67;1547050;91;25887;-70
2021/06/14 15:50:14;;;;;;;3.40;1.55;;;;;;;27.60;28.05;100604.98;1550240;91;29539;-69
2021/06/14 15:52:40;;;;;;;3.60;1.62;;;;;;;27.49;28.09;100598.19;1565111;90;25911;-70
2021/06/14 15:55:09;;;;;;;1.55;1.45;;;;;;;27.39;28.34;100602.07;1569756;90;25948;-70
2021/06/14 15:57:35;;;;;;;2.40;1.00;;;;;;;27.31;28.31;100599.81;1576394;90;26583;-70
2021/06/14 16:00:05;;;;;;;3.50;1.30;;;;;;;27.20;28.27;100604.87;1589325;88;25884;-69
2021/06/14 16:02:32;;;;;;;2.50;1.30;;;;;;;27.11;28.40;100599.66;1571221;88;28588;-69
2021/06/14 16:04:59;;;;;;;2.08;1.30;;;;;;;26.99;28.52;100593.44;1575121;87;25909;-69
2021/06/14 16:07:26;;;;;;;4.37;1.32;;;;;;;26.90;28.62;100596.52;1589644;88;26126;-68
2021/06/14 16:09:53;;;;;;;1.35;1.25;;;;;;;26.79;28.78;100589.09;1582089;89;28136;-68
2021/06/14 16:12:19;;;;;;;1.25;1.02;;;;;;;26.67;28.81;100582.70;1594347;88;26690;-67
2021/06/14 16:14:46;;;;;;;1.80;1.20;;;;;;;26.54;28.93;100592.09;1574054;88;27481;-72
2021/06/14 16:17:13;;;;;;;2.92;1.37;;;;;;;26.37;29.05;100582.75;1589586;87;26756;-76
2021/06/14 16:19:40;;;;;;;2.70;1.30;;;;;;;26.26;29.17;100593.95;1594676;88;26573;-66
2021/06/14 16:22:07;;;;;;;3.65;1.45;;;;;;;26.11;29.23;100588.95;1624426;86;27354;-66
2021/06/14 16:24:33;;;;;;;3.25;1.20;;;;;;;25.96;29.51;100584.89;1622208;86;26569;-67
2021/06/14 16:27:00;;;;;;;7.08;1.25;;;;;;;25.82;29.74;100582.98;1587432;88;27404;-69
2021/06/14 16:29:26;;;;;;;6.08;1.32;;;;;;;25.71;29.88;100585.03;1590487;89;26623;-64
2021/06/14 16:31:53;;;;;;;1.07;0.98;;;;;;;25.57;29.81;100578.98;1599448;88;25955;-65
2021/06/14 16:34:21;;;;;;;1.50;1.27;;;;;;;25.47;29.87;100584.80;1578938;85;26709;-64
2021/06/14 16:36:48;;;;;;;3.37;1.52;;;;;;;25.36;30.01;100588.21;1622158;85;26020;-63
2021/06/14 16:39:15;;;;;;;2.75;1.40;;;;;;;25.25;30.44;100574.98;1656889;85;28141;-63
2021/06/14 16:41:42;;;;;;;5.67;1.20;;;;;;;25.20;30.51;100581.74;1659491;84;26487;-63
2021/06/14 16:44:09;;;;;;;1.75;1.10;;;;;;;25.13;30.43;100577.59;1649848;85;25995;-69
2021/06/14 16:46:57;;;;;;;1.45;1.20;;;;;;;25.04;30.52;100577.25;1640535;85;26277;-67
2021/06/14 16:49:35;;;;;;;2.30;1.10;;;;;;;24.94;30.82;100581.06;1612133;86;25849;-67
2021/06/14 16:52:18;;;;;;;4.12;1.75;;;;;;;24.83;31.00;100582.27;1596208;87;25896;-67
2021/06/14 16:54:59;;;;;;;4.55;2.10;;;;;;;24.71;31.25;100575.97;1586936;88;26521;-67
2021/06/14 16:57:36;;;;;;;3.45;1.40;;;;;;;24.59;31.45;100573.04;1590994;85;26611;-64
2021/06/14 17:00:24;;;;;;;2.60;2.12;;;;;;;24.51;31.91;100573.42;1619596;87;26023;-65
2021/06/14 17:03:19;;;;;;;4.22;2.30;;;;;;;24.44;32.29;100568.69;1552233;90;25986;-68
2021/06/14 17:05:59;;;;;;;4.17;1.72;;;;;;;24.37;32.46;100570.88;1555806;90;27374;-67
2021/06/14 17:08:46;;;;;;;;;;;;;;;;;;;;;
2021/06/14 17:11:17;;;;;;;2.87;1.20;;;;;;;24.24;32.48;100570.48;1573386;88;25800;-66
2021/06/14 17:14:12;;;;;;;;;;;;;;;;;;;;;
2021/06/14 17:16:53;;;;;;;2.47;1.50;;;;;;;24.08;32.74;100573.47;1526505;91;26020;-66
2021/06/14 17:19:33;;;;;;;2.92;1.20;;;;;;;23.99;32.98;100566.36;1476489;94;26182;-67
2021/06/14 17:22:11;;;;;;;1.95;1.10;;;;;;;23.92;33.27;100569.09;1467638;95;25885;-67
2021/06/14 17:24:39;;;;;;;3.80;1.15;;;;;;;23.85;33.32;100567.14;1427111;98;25973;-65